ADDS METAR Data INFO
IDs: Format: Raw Decoded Include TAF

Data at: 0545 UTC 22 Nov 2017

KPEQ 220535Z AUTO 03006KT 10SM CLR 11/M02 A3036 RMK AO2 T01091024
KPEQ 220515Z AUTO 04006KT 10SM CLR 12/M02 A3035 RMK AO2 T01151024
KPEQ 220455Z AUTO 05007KT 10SM CLR 12/M02 A3034 RMK AO2 T01161023
KPEQ 220435Z AUTO 01005KT 10SM CLR 11/M03 A3033 RMK AO2 T01091030
KPEQ 220415Z AUTO 03005KT 10SM CLR 11/M02 A3032 RMK AO2 T01131020
KPEQ 220355Z AUTO 03006KT 10SM CLR 13/M02 A3031 RMK AO2 T01261025
KPEQ 220335Z AUTO 02005KT 10SM CLR 12/M04 A3030 RMK AO2 T01161038
KPEQ 220315Z AUTO 01004KT 10SM CLR 13/M03 A3029 RMK AO2 T01291034
KPEQ 220255Z AUTO 03004KT 10SM CLR 13/M03 A3027 RMK AO2 T01311033
KPEQ 220235Z AUTO 00000KT 10SM CLR 14/M04 A3026 RMK AO2 T01441045
KPEQ 220215Z AUTO 00000KT 10SM CLR 14/M03 A3025 RMK AO2 T01441027
KPEQ 220155Z AUTO 05004KT 10SM CLR 15/M03 A3024 RMK AO2 T01531029
KPEQ 220135Z AUTO 04004KT 10SM CLR 16/M04 A3023 RMK AO2 T01601036
KPEQ 220115Z AUTO 05006KT 10SM CLR 16/M05 A3021 RMK AO2 T01571047
KPEQ 220055Z AUTO 05006KT 10SM CLR 17/M04 A3020 RMK AO2 T01661038
KPEQ 220035Z AUTO 05005KT 10SM CLR 17/M05 A3019 RMK AO2 T01731048
KPEQ 220015Z AUTO 04004KT 10SM CLR 17/M04 A3017 RMK AO2 T01741039
KPEQ 212355Z AUTO 04008KT 10SM CLR 19/M05 A3016 RMK AO2 T01921055 10260 20192
KPEQ 212335Z AUTO 05009KT 10SM CLR 21/M07 A3015 RMK AO2 T02051067
KPEQ 212315Z AUTO 04013G17KT 10SM CLR 21/M07 A3014 RMK AO2 T02121067
KPEQ 212255Z AUTO 04013G18KT 10SM CLR 22/M07 A3012 RMK AO2 T02201072
KPEQ 212235Z AUTO 03014G21KT 10SM CLR 23/M08 A3012 RMK AO2 T02261080
KPEQ 212215Z AUTO 03012G20KT 10SM CLR 23/M09 A3010 RMK AO2 T02321088
KPEQ 212155Z AUTO 04016G24KT 10SM CLR 24/M10 A3009 RMK AO2 T02371103
KPEQ 212135Z AUTO 02014G22KT 10SM CLR 24/M11 A3007 RMK AO2 T02411114
KPEQ 212115Z AUTO 01020G25KT 10SM CLR 25/M12 A3006 RMK AO2 T02511118
KPEQ 212055Z AUTO 01018G24KT 10SM CLR 26/M11 A3004 RMK AO2 T02561115
KPEQ 212035Z AUTO 02016G27KT 10SM CLR 26/M11 A3003 RMK AO2 T02561113
KPEQ 212015Z AUTO 35010G15KT 10SM CLR 25/M07 A3002 RMK AO2 T02481074
KPEQ 211955Z AUTO 32016KT 10SM CLR 24/M09 A3002 RMK AO2 T02411086
KPEQ 211935Z AUTO 32015KT 10SM CLR 25/M08 A3001 RMK AO2 T02461085
KPEQ 211915Z AUTO 31016G23KT 10SM CLR 24/M08 A3001 RMK AO2 T02401085
KPEQ 211855Z AUTO 30017KT 10SM CLR 23/M08 A3000 RMK AO2 T02331079
KPEQ 211835Z AUTO 31017KT 10SM CLR 22/M08 A3001 RMK AO2 T02211080
KPEQ 211815Z AUTO 31016G21KT 10SM CLR 23/M08 A3001 RMK AO2 T02251083
KPEQ 211755Z AUTO 32017KT 10SM CLR 22/M09 A3001 RMK AO2 T02201090 10224 20049
KPEQ 211735Z AUTO 32019G24KT 10SM CLR 22/M08 A3000 RMK AO2 T02191085
KPEQ 211715Z AUTO 31020G23KT 5SM HZ CLR 21/M08 A3001 RMK AO2 T02121082
KPEQ 211655Z AUTO 31018G23KT 7SM CLR 21/M09 A3001 RMK AO2 T02051086
KPEQ 211635Z AUTO 30017G21KT 10SM CLR 20/M08 A3002 RMK AO2 T01951079
KPEQ 211615Z AUTO 30016G22KT 10SM CLR 19/M08 A3001 RMK AO2 T01901080
KPEQ 211555Z AUTO 29015G19KT 10SM CLR 18/M06 A3000 RMK AO2 T01781058
KPEQ 211535Z AUTO 28008KT 10SM CLR 16/M05 A3000 RMK AO2 T01611046
KPEQ 211515Z AUTO 29008KT 10SM CLR 15/M04 A3000 RMK AO2 T01471044
KPEQ 211455Z AUTO 28005KT 10SM CLR 12/M03 A2999 RMK AO2 T01211033
KPEQ 211435Z AUTO 30008KT 10SM CLR 10/M03 A2999 RMK AO2 T00991028
KPEQ 211415Z AUTO 29007KT 10SM CLR 08/M03 A2997 RMK AO2 T00781031
KPEQ 211355Z AUTO 29006KT 10SM CLR 06/M03 A2996 RMK AO2 T00621034
KPEQ 211335Z AUTO 30006KT 10SM CLR 05/M04 A2995 RMK AO2 T00531037
KPEQ 211315Z AUTO 33006KT 10SM CLR 06/M04 A2994 RMK AO2 T00571038
KPEQ 211255Z AUTO 32005KT 10SM CLR 05/M04 A2993 RMK AO2 T00531040
KPEQ 211235Z AUTO 35005KT 10SM CLR 06/M04 A2991 RMK AO2 T00601036
KPEQ 211215Z AUTO 00000KT 10SM CLR 06/M04 A2989 RMK AO2 T00601042
KPEQ 211155Z AUTO 00000KT 10SM CLR 06/M04 A2988 RMK AO2 T00641044 10143 20064
KPEQ 211135Z AUTO 30005KT 10SM CLR 09/M05 A2987 RMK AO2 T00941047
KPEQ 211115Z AUTO 33006KT 10SM CLR 10/M05 A2988 RMK AO2 T00961050
KPEQ 211055Z AUTO 32007KT 10SM CLR 09/M05 A2986 RMK AO2 T00891047
KPEQ 211035Z AUTO 30004KT 10SM CLR 09/M04 A2986 RMK AO2 T00931045
KPEQ 211015Z AUTO 30003KT 10SM CLR 09/M03 A2986 RMK AO2 T00861031
KPEQ 210955Z AUTO 04007KT 10SM CLR 10/M03 A2986 RMK AO2 T01011035
KPEQ 210935Z AUTO 32006KT 10SM CLR 13/M06 A2986 RMK AO2 T01331057
KPEQ 210915Z AUTO 26005KT 10SM CLR 14/M06 A2985 RMK AO2 T01411057
KPEQ 210855Z AUTO 00000KT 10SM CLR 09/M05 A2987 RMK AO2 T00891048
KPEQ 210835Z AUTO 09004KT 10SM CLR 13/M05 A2988 RMK AO2 T01311051
KPEQ 210815Z AUTO 25009KT 10SM CLR 14/M05 A2988 RMK AO2 T01401050
KPEQ 210755Z AUTO 25011KT 10SM CLR 14/M05 A2988 RMK AO2 T01381046
KPEQ 210735Z AUTO 24010KT 10SM CLR 11/M04 A2989 RMK AO2 T01061038
KPEQ 210715Z AUTO 21005KT 10SM CLR 10/M04 A2990 RMK AO2 T00971038
KPEQ 210655Z AUTO 22006KT 10SM CLR 13/M04 A2989 RMK AO2 T01271040
KPEQ 210635Z AUTO 24008KT 10SM CLR 11/M04 A2990 RMK AO2 T01061038
KPEQ 210615Z AUTO 23009KT 10SM CLR 09/M04 A2990 RMK AO2 T00921039
KPEQ 210555Z AUTO 22006KT 10SM CLR 09/M04 A2993 RMK AO2 T00941037 10183 20085 402401013
KPEQ 210535Z AUTO 22008KT 10SM CLR 09/M04 A2993 RMK AO2 T00871040
KPEQ 210515Z AUTO 24008KT 10SM CLR 09/M04 A2993 RMK AO2 T00891040
KPEQ 210455Z AUTO 24007KT 10SM CLR 10/M04 A2994 RMK AO2 T01001038
KPEQ 210435Z AUTO 23007KT 10SM CLR 11/M04 A2994 RMK AO2 T01071036
KPEQ 210415Z AUTO 22007KT 10SM CLR 11/M04 A2995 RMK AO2 T01101037
KPEQ 210355Z AUTO 23006KT 10SM CLR 12/M04 A2995 RMK AO2 T01241038
KPEQ 210335Z AUTO 23008KT 10SM CLR 13/M04 A2993 RMK AO2 T01291036
KPEQ 210315Z AUTO 21008KT 10SM CLR 13/M03 A2993 RMK AO2 T01271035
KPEQ 210255Z AUTO 22008KT 10SM CLR 14/M03 A2993 RMK AO2 T01441035
KPEQ 210235Z AUTO 22009KT 10SM CLR 14/M03 A2993 RMK AO2 T01381033
KPEQ 210215Z AUTO 21006KT 10SM CLR 13/M04 A2993 RMK AO2 T01311037
KPEQ 210155Z AUTO 22007KT 10SM CLR 14/M04 A2994 RMK AO2 T01361036
KPEQ 210135Z AUTO 22006KT 10SM CLR 14/M03 A2995 RMK AO2 T01391035
KPEQ 210115Z AUTO 21007KT 10SM CLR 15/M03 A2994 RMK AO2 T01481032
KPEQ 210055Z AUTO 22008KT 10SM CLR 16/M03 A2993 RMK AO2 T01561034
KPEQ 210035Z AUTO 23008KT 10SM CLR 18/M04 A2993 RMK AO2 T01751044
KPEQ 210015Z AUTO 21006KT 10SM CLR 16/M04 A2993 RMK AO2 T01561037
KPEQ 202355Z AUTO 24004KT 10SM CLR 19/M04 A2993 RMK AO2 T01851045 10240 20172
KPEQ 202335Z AUTO 26006KT 10SM CLR 21/M04 A2993 RMK AO2 T02051043
KPEQ 202315Z AUTO 27009KT 10SM CLR 22/M04 A2993 RMK AO2 T02201040
KPEQ 202255Z AUTO 27013G16KT 10SM CLR 23/M04 A2993 RMK AO2 T02301037
KPEQ 202235Z AUTO 26012G18KT 10SM CLR 23/M04 A2993 RMK AO2 T02301038
KPEQ 202215Z AUTO 27013G18KT 10SM CLR 24/M04 A2993 RMK AO2 T02361036
KPEQ 202155Z AUTO 27015KT 10SM CLR 24/M04 A2993 RMK AO2 T02351042
KPEQ 202135Z AUTO 27012G19KT 10SM CLR 24/M03 A2993 RMK AO2 T02371033
KPEQ 202115Z AUTO 27013KT 10SM CLR 24/M03 A2993 RMK AO2 T02391035
KPEQ 202055Z AUTO 25015G19KT 10SM CLR 24/M03 A2994 RMK AO2 T02381033
KPEQ 202035Z AUTO 26014KT 10SM CLR 24/M03 A2995 RMK AO2 T02351035
KPEQ 202015Z AUTO 27012G18KT 10SM CLR 24/M02 A2995 RMK AO2 T02361025
KPEQ 201955Z AUTO 27009G18KT 10SM CLR 23/M02 A2996 RMK AO2 T02301022
KPEQ 201935Z AUTO 27014KT 10SM CLR 23/M03 A2997 RMK AO2 T02271028
KPEQ 201915Z AUTO 27013G19KT 10SM CLR 22/M03 A2999 RMK AO2 T02221028
KPEQ 201855Z AUTO 27014KT 10SM CLR 22/M02 A3000 RMK AO2 T02201021
KPEQ 201835Z AUTO 16004KT 10SM CLR 20/M01 A3002 RMK AO2 T01951010
KPEQ 201815Z AUTO 22004KT 10SM CLR 18/M01 A3004 RMK AO2 T01791010
KPEQ 201755Z AUTO 15004KT 10SM CLR 17/M01 A3005 RMK AO2 T01661014 10166 21013